Time;durP1;ratioP1;P1;durP2;ratioP2;P2;SDS_P1;SDS_P2;PMS_P1;PMS_P2;Temp;Humidity;BMP_temperature;BMP_pressure;BME280_temperature;BME280_humidity;BME280_pressure;Samples;Min_cycle;Max_cycle;Signal;HPM_P1;HPM_P2
2022/11/14 00:01:33;;;;;;;46.40;22.37;;;;;;;2.50;100.00;100546.72;5091993;28;20947;-67
2022/11/14 00:04:00;;;;;;;47.10;23.67;;;;;;;2.53;100.00;100536.84;5102373;28;20441;-67
2022/11/14 00:06:28;;;;;;;46.40;24.27;;;;;;;2.94;100.00;100538.19;5089325;28;20501;-66
2022/11/14 00:08:55;;;;;;;43.63;25.03;;;;;;;2.85;100.00;100539.56;5102512;28;20436;-67
2022/11/14 00:11:21;;;;;;;45.57;23.93;;;;;;;2.92;100.00;100548.00;5100201;28;20479;-65
2022/11/14 00:13:48;;;;;;;51.90;23.80;;;;;;;2.88;100.00;100538.50;5105689;28;20444;-67
2022/11/14 00:16:15;;;;;;;43.30;22.67;;;;;;;2.71;100.00;100540.31;5086182;28;20502;-66
2022/11/14 00:18:41;;;;;;;43.33;23.90;;;;;;;2.51;100.00;100530.81;5096100;28;20932;-67
2022/11/14 00:21:08;;;;;;;47.10;23.80;;;;;;;2.40;100.00;100530.53;5104948;28;20463;-66
2022/11/14 00:23:36;;;;;;;49.67;24.10;;;;;;;2.44;100.00;100529.44;5106776;28;20428;-66
2022/11/14 00:26:03;;;;;;;42.50;22.90;;;;;;;2.48;100.00;100523.03;5097333;28;20492;-66
2022/11/14 00:28:29;;;;;;;50.70;26.87;;;;;;;2.50;100.00;100525.59;5086112;28;20478;-66
2022/11/14 00:30:56;;;;;;;50.00;24.50;;;;;;;2.70;100.00;100516.63;5084452;28;20554;-66
2022/11/14 00:33:23;;;;;;;49.40;26.33;;;;;;;2.63;100.00;100514.31;5085636;28;20455;-66
2022/11/14 00:35:51;;;;;;;48.00;24.50;;;;;;;2.64;100.00;100510.75;5085955;28;20822;-66
2022/11/14 00:38:18;;;;;;;53.97;26.10;;;;;;;2.62;100.00;100509.09;5085574;28;20432;-66
2022/11/14 00:40:46;;;;;;;52.10;25.70;;;;;;;2.53;100.00;100504.31;5086077;28;20479;-66
2022/11/14 00:43:13;;;;;;;46.87;24.07;;;;;;;2.53;100.00;100507.81;5098767;28;20451;-66
2022/11/14 00:45:39;;;;;;;52.53;26.00;;;;;;;2.52;100.00;100498.22;5095037;28;20475;-66
2022/11/14 00:48:06;;;;;;;53.80;24.20;;;;;;;2.48;100.00;100506.38;5084360;28;20456;-65
2022/11/14 00:50:33;;;;;;;49.57;26.13;;;;;;;2.39;100.00;100497.16;5085326;28;20533;-65
2022/11/14 00:53:00;;;;;;;58.10;27.30;;;;;;;2.38;100.00;100503.38;5085255;28;20439;-66
2022/11/14 00:55:26;;;;;;;48.67;22.87;;;;;;;2.18;100.00;100500.00;5090806;28;20459;-66
2022/11/14 00:57:54;;;;;;;48.77;23.40;;;;;;;2.05;100.00;100506.88;5085964;28;20460;-66
2022/11/14 01:00:21;;;;;;;46.27;24.40;;;;;;;1.90;100.00;100500.59;5085039;28;20441;-66
2022/11/14 01:02:48;;;;;;;48.03;23.87;;;;;;;1.85;100.00;100492.91;5084387;28;20513;-66
2022/11/14 01:05:15;;;;;;;46.83;23.93;;;;;;;1.83;100.00;100486.03;5085847;28;20478;-66
2022/11/14 01:07:42;;;;;;;48.80;23.73;;;;;;;1.81;100.00;100487.91;5102820;28;20455;-66
2022/11/14 01:10:10;;;;;;;47.50;24.67;;;;;;;2.01;100.00;100478.94;5103067;28;20912;-66
2022/11/14 01:12:36;;;;;;;54.63;25.60;;;;;;;2.13;100.00;100473.00;5085106;28;20436;-66
2022/11/14 01:15:05;;;;;;;47.83;24.43;;;;;;;2.24;100.00;100478.59;5084930;28;20456;-65
2022/11/14 01:17:32;;;;;;;50.03;23.80;;;;;;;2.33;100.00;100471.97;5083634;28;20514;-65
2022/11/14 01:19:59;;;;;;;47.53;24.70;;;;;;;2.20;100.00;100471.75;5084808;28;20437;-65
2022/11/14 01:22:26;;;;;;;50.13;26.07;;;;;;;2.30;100.00;100468.63;5102978;28;21076;-66
2022/11/14 01:24:54;;;;;;;49.83;25.37;;;;;;;2.38;100.00;100472.56;5104829;28;20891;-66
2022/11/14 01:27:20;;;;;;;49.70;23.43;;;;;;;2.40;100.00;100467.22;5102466;28;20475;-66
2022/11/14 01:29:48;;;;;;;43.93;25.30;;;;;;;2.50;100.00;100464.91;5104728;28;20522;-68
2022/11/14 01:32:16;;;;;;;49.60;25.33;;;;;;;2.47;100.00;100463.28;5091424;28;20486;-67
2022/11/14 01:34:43;;;;;;;42.60;23.23;;;;;;;2.44;100.00;100455.53;5105064;28;20451;-67
2022/11/14 01:37:10;;;;;;;50.87;24.80;;;;;;;2.43;100.00;100454.69;5100024;28;20467;-67
2022/11/14 01:39:36;;;;;;;51.90;25.83;;;;;;;2.43;100.00;100459.97;5091598;28;20441;-67
2022/11/14 01:42:03;;;;;;;44.60;23.43;;;;;;;2.51;100.00;100446.34;5083891;28;20487;-66
2022/11/14 01:44:45;;;;;;;48.73;26.00;;;;;;;2.52;100.00;100440.16;5085573;28;20444;-66
2022/11/14 01:47:15;;;;;;;44.97;24.60;;;;;;;2.48;100.00;100432.47;5095198;28;20810;-66
2022/11/14 01:49:46;;;;;;;52.63;27.07;;;;;;;2.45;100.00;100430.88;5103954;28;20500;-66
2022/11/14 01:52:15;;;;;;;44.03;24.50;;;;;;;2.42;100.00;100429.22;5104005;28;20471;-67
2022/11/14 01:54:46;;;;;;;48.33;26.50;;;;;;;2.44;100.00;100423.88;5091964;28;20482;-66
2022/11/14 01:57:14;;;;;;;45.50;23.93;;;;;;;2.46;100.00;100424.63;5092291;28;20472;-66
2022/11/14 01:59:43;;;;;;;49.20;23.20;;;;;;;2.50;100.00;100413.00;5104504;28;20428;-66
2022/11/14 02:02:14;;;;;;;46.97;25.60;;;;;;;2.47;100.00;100414.94;5094617;28;20846;-66
2022/11/14 02:04:46;;;;;;;44.10;24.47;;;;;;;2.41;100.00;100418.75;5072346;28;20489;-66
2022/11/14 02:07:13;;;;;;;48.70;22.43;;;;;;;2.33;100.00;100419.19;5072668;28;20484;-66
2022/11/14 02:09:42;;;;;;;44.80;24.73;;;;;;;2.33;100.00;100419.19;5083660;28;20792;-66
2022/11/14 02:12:10;;;;;;;45.47;24.30;;;;;;;2.36;100.00;100408.47;5100461;28;20476;-66
2022/11/14 02:14:37;;;;;;;48.43;25.20;;;;;;;2.40;100.00;100403.88;5090735;28;20771;-66
2022/11/14 02:17:04;;;;;;;45.97;24.50;;;;;;;2.31;100.00;100399.97;5082787;28;20484;-66
2022/11/14 02:19:41;;;;;;;47.00;23.97;;;;;;;2.35;100.00;100398.84;5083117;28;20464;-66
2022/11/14 02:22:09;;;;;;;51.97;26.50;;;;;;;2.30;100.00;100400.88;5099302;28;20471;-66
2022/11/14 02:24:36;;;;;;;45.83;23.83;;;;;;;2.33;100.00;100384.91;5103272;28;20549;-66
2022/11/14 02:27:05;;;;;;;48.30;24.33;;;;;;;2.31;100.00;100388.53;5088763;28;20533;-66
2022/11/14 02:29:32;;;;;;;43.93;24.13;;;;;;;2.35;100.00;100388.28;5083202;28;20476;-66
2022/11/14 02:31:59;;;;;;;50.40;26.23;;;;;;;2.24;100.00;100383.63;5091927;28;20479;-66
2022/11/14 02:34:26;;;;;;;48.97;24.17;;;;;;;2.31;100.00;100377.97;5085052;28;20437;-66
2022/11/14 02:36:52;;;;;;;49.10;25.07;;;;;;;2.36;100.00;100375.94;5081986;28;20480;-66
2022/11/14 02:39:21;;;;;;;53.53;27.20;;;;;;;2.32;100.00;100377.91;5083709;28;20460;-66
2022/11/14 02:41:48;;;;;;;54.27;27.70;;;;;;;2.32;100.00;100377.91;5082368;28;20500;-66
2022/11/14 02:44:14;;;;;;;48.07;25.33;;;;;;;2.29;100.00;100382.50;5093920;28;20448;-67
2022/11/14 02:46:41;;;;;;;48.93;26.63;;;;;;;2.33;100.00;100381.41;5102133;28;20479;-67
2022/11/14 02:49:08;;;;;;;55.00;26.93;;;;;;;2.33;100.00;100376.13;5093510;28;20444;-67
2022/11/14 02:51:35;;;;;;;57.23;26.70;;;;;;;2.25;100.00;100371.28;5095695;28;21198;-67
2022/11/14 02:54:01;;;;;;;50.07;24.70;;;;;;;2.28;100.00;100373.75;5100913;28;20473;-67
2022/11/14 02:56:29;;;;;;;56.93;28.07;;;;;;;2.30;100.00;100376.31;5083519;28;20509;-67
2022/11/14 02:58:56;;;;;;;46.60;23.90;;;;;;;2.28;100.00;100370.25;5083307;28;20479;-67
2022/11/14 03:01:23;;;;;;;52.13;27.27;;;;;;;2.29;100.00;100374.59;5091312;28;21088;-68
2022/11/14 03:03:50;;;;;;;45.50;26.73;;;;;;;2.23;100.00;100371.34;5103251;28;20477;-69
2022/11/14 03:06:16;;;;;;;51.93;26.83;;;;;;;2.25;100.00;100366.84;5097574;28;20484;-68
2022/11/14 03:08:43;;;;;;;52.60;26.33;;;;;;;2.19;100.00;100361.91;5083017;28;20432;-68
2022/11/14 03:11:10;;;;;;;54.60;28.00;;;;;;;2.24;100.00;100362.50;5084702;28;20522;-68
2022/11/14 03:13:38;;;;;;;54.43;27.77;;;;;;;2.28;100.00;100371.09;5102937;28;20431;-68
2022/11/14 03:16:07;;;;;;;50.90;27.03;;;;;;;2.33;100.00;100368.22;5099970;28;20479;-68
2022/11/14 03:18:34;;;;;;;57.43;25.77;;;;;;;2.30;100.00;100373.66;5102395;28;20447;-68
2022/11/14 03:21:05;;;;;;;54.83;26.67;;;;;;;2.29;100.00;100364.03;5101198;28;20471;-68
2022/11/14 03:23:32;;;;;;;54.53;24.57;;;;;;;2.26;100.00;100362.44;5102751;28;20912;-67
2022/11/14 03:26:00;;;;;;;54.00;26.37;;;;;;;2.27;100.00;100348.28;5101897;28;20475;-68
2022/11/14 03:28:27;;;;;;;48.23;24.90;;;;;;;2.18;100.00;100347.00;5088521;28;20445;-67
2022/11/14 03:30:55;;;;;;;52.13;25.80;;;;;;;2.27;100.00;100345.66;5087438;28;20476;-67
2022/11/14 03:33:22;;;;;;;46.50;23.80;;;;;;;2.20;100.00;100342.50;5100281;28;20448;-67
2022/11/14 03:35:49;;;;;;;54.10;26.97;;;;;;;2.30;100.00;100340.22;5101823;28;20524;-67
2022/11/14 03:38:16;;;;;;;49.20;25.90;;;;;;;2.27;100.00;100332.47;5085170;28;20444;-73
2022/11/14 03:40:43;;;;;;;52.67;26.83;;;;;;;2.24;100.00;100341.41;5082439;28;20468;-73
2022/11/14 03:43:09;;;;;;;54.17;25.83;;;;;;;2.30;100.00;100336.72;5082612;28;20510;-72
2022/11/14 03:45:36;;;;;;;48.40;25.57;;;;;;;2.29;100.00;100332.38;5081861;28;20472;-72
2022/11/14 03:48:05;;;;;;;50.57;25.73;;;;;;;2.32;100.00;100330.41;5092697;28;20445;-72
2022/11/14 03:50:32;;;;;;;48.57;26.23;;;;;;;2.28;100.00;100328.91;5086189;28;20470;-71
2022/11/14 03:52:59;;;;;;;56.97;27.07;;;;;;;2.35;100.00;100330.25;5098466;28;20435;-73
2022/11/14 03:55:26;;;;;;;53.67;28.13;;;;;;;2.35;100.00;100335.53;5103507;28;20457;-71
2022/11/14 03:57:52;;;;;;;54.70;26.07;;;;;;;2.32;100.00;100325.13;5086883;28;20506;-69
2022/11/14 04:00:20;;;;;;;51.70;25.50;;;;;;;2.32;100.00;100322.50;5086358;28;20510;-69
2022/11/14 04:02:47;;;;;;;59.23;27.90;;;;;;;2.33;100.00;100323.38;5101659;28;20484;-69
2022/11/14 04:05:15;;;;;;;47.53;24.83;;;;;;;2.31;100.00;100319.94;5103819;28;20539;-73
2022/11/14 04:07:41;;;;;;;55.13;26.93;;;;;;;2.33;100.00;100333.94;5100422;28;20452;-72
2022/11/14 04:10:08;;;;;;;47.27;24.37;;;;;;;2.30;100.00;100320.91;5087127;28;20451;-72
2022/11/14 04:12:35;;;;;;;52.40;27.50;;;;;;;2.34;100.00;100317.97;5085717;28;20486;-72
2022/11/14 04:15:02;;;;;;;58.50;28.63;;;;;;;2.31;100.00;100315.53;5087214;28;20452;-73
2022/11/14 04:17:29;;;;;;;54.17;26.63;;;;;;;2.30;100.00;100311.19;5086460;28;20483;-72
2022/11/14 04:19:55;;;;;;;51.53;27.53;;;;;;;2.33;100.00;100316.28;5102785;28;20943;-72
2022/11/14 04:22:23;;;;;;;54.03;26.30;;;;;;;2.30;100.00;100315.63;5085537;28;20472;-70
2022/11/14 04:24:50;;;;;;;53.80;26.30;;;;;;;2.29;100.00;100306.84;5086711;28;20449;-72
2022/11/14 04:27:17;;;;;;;62.30;28.13;;;;;;;2.22;100.00;100303.72;5085249;28;20479;-72
2022/11/14 04:29:44;;;;;;;60.57;27.40;;;;;;;2.28;100.00;100294.59;5086858;28;20889;-72
2022/11/14 04:32:10;;;;;;;57.23;27.50;;;;;;;2.28;100.00;100304.31;5105137;28;20478;-71
2022/11/14 04:34:37;;;;;;;57.57;29.07;;;;;;;2.23;100.00;100294.84;5105914;28;20457;-72
2022/11/14 04:37:04;;;;;;;61.87;29.10;;;;;;;2.22;100.00;100297.56;5065773;28;20939;-71
2022/11/14 04:39:32;;;;;;;59.73;29.57;;;;;;;2.19;100.00;100301.25;5100526;28;20451;-71
2022/11/14 04:41:59;;;;;;;55.53;26.93;;;;;;;2.24;100.00;100299.19;5105036;28;20478;-71
2022/11/14 04:44:26;;;;;;;51.00;27.37;;;;;;;2.23;100.00;100294.00;5106111;28;20461;-71
2022/11/14 04:46:52;;;;;;;62.80;27.70;;;;;;;2.12;100.00;100291.97;5086422;28;20487;-72
2022/11/14 04:49:19;;;;;;;58.33;27.20;;;;;;;2.20;100.00;100289.75;5085047;28;20501;-72
2022/11/14 04:51:46;;;;;;;50.33;24.83;;;;;;;2.19;100.00;100295.13;5088364;28;21031;-72
2022/11/14 04:54:12;;;;;;;60.03;26.33;;;;;;;2.22;100.00;100282.63;5085238;28;20474;-70
2022/11/14 04:56:40;;;;;;;58.73;26.03;;;;;;;2.21;100.00;100291.44;5100351;28;20471;-71
2022/11/14 04:59:07;;;;;;;54.10;26.43;;;;;;;2.18;100.00;100277.59;5104194;28;20507;-71
2022/11/14 05:01:34;;;;;;;50.27;26.63;;;;;;;2.19;100.00;100277.50;5094261;28;20529;-71
2022/11/14 05:04:01;;;;;;;57.07;27.60;;;;;;;2.14;100.00;100283.97;5100973;28;20440;-70
2022/11/14 05:06:27;;;;;;;57.30;27.83;;;;;;;2.13;100.00;100279.63;5086817;28;20483;-71
2022/11/14 05:08:54;;;;;;;58.70;27.93;;;;;;;2.12;100.00;100272.66;5084878;28;20898;-70
2022/11/14 05:11:21;;;;;;;55.77;26.73;;;;;;;2.09;100.00;100275.47;5096673;28;20479;-71
2022/11/14 05:13:49;;;;;;;58.73;27.73;;;;;;;2.06;100.00;100279.13;5081477;28;20444;-71
2022/11/14 05:16:16;;;;;;;48.33;25.73;;;;;;;2.03;100.00;100276.66;5076228;28;20530;-71
2022/11/14 05:18:43;;;;;;;53.40;27.07;;;;;;;1.95;100.00;100284.16;5086424;28;20447;-71
2022/11/14 05:21:12;;;;;;;52.03;26.53;;;;;;;1.97;100.00;100279.66;5083912;28;20566;-70
2022/11/14 05:23:39;;;;;;;52.83;26.03;;;;;;;2.00;100.00;100287.38;5084474;28;21133;-71
2022/11/14 05:26:09;;;;;;;56.00;27.37;;;;;;;1.99;100.00;100277.75;5082063;28;20555;-70
2022/11/14 05:28:36;;;;;;;62.30;29.93;;;;;;;2.05;100.00;100277.44;5090213;28;20501;-70
2022/11/14 05:31:05;;;;;;;58.63;25.10;;;;;;;2.02;100.00;100274.97;5093685;28;20479;-69
2022/11/14 05:33:32;;;;;;;61.63;28.30;;;;;;;2.07;100.00;100272.91;5079847;28;20467;-70
2022/11/14 05:36:02;;;;;;;54.23;26.83;;;;;;;2.11;100.00;100276.25;5081301;28;20467;-69
2022/11/14 05:38:29;;;;;;;50.17;28.20;;;;;;;2.05;100.00;100272.16;5074246;28;20459;-69
2022/11/14 05:40:56;;;;;;;56.63;26.70;;;;;;;2.09;100.00;100273.69;5101735;28;20491;-68
2022/11/14 05:43:23;;;;;;;62.53;28.50;;;;;;;2.05;100.00;100269.53;5092743;28;20445;-68
2022/11/14 05:45:49;;;;;;;56.63;26.20;;;;;;;2.05;100.00;100259.81;5101885;28;20483;-68
2022/11/14 05:48:18;;;;;;;56.30;28.03;;;;;;;1.99;100.00;100268.06;5098600;28;20493;-68
2022/11/14 05:50:44;;;;;;;53.40;26.90;;;;;;;2.00;100.00;100259.22;5082699;28;20505;-69
2022/11/14 05:53:11;;;;;;;52.73;26.80;;;;;;;1.97;100.00;100261.19;5082757;28;20432;-68
2022/11/14 05:55:38;;;;;;;61.17;27.03;;;;;;;1.91;100.00;100249.19;5080595;28;21070;-69
2022/11/14 05:58:04;;;;;;;49.50;25.97;;;;;;;1.89;100.00;100258.97;5086218;28;20518;-69
2022/11/14 06:00:31;;;;;;;52.67;26.87;;;;;;;1.85;100.00;100252.16;5081962;28;21291;-69
2022/11/14 06:02:58;;;;;;;67.17;29.33;;;;;;;1.85;100.00;100260.91;5082888;28;20456;-67
2022/11/14 06:05:26;;;;;;;49.90;28.83;;;;;;;2.00;100.00;100259.22;5071959;28;20458;-68
2022/11/14 06:07:56;;;;;;;54.43;28.10;;;;;;;2.05;100.00;100267.72;5102821;28;20491;-68
2022/11/14 06:10:23;;;;;;;60.80;27.70;;;;;;;2.04;100.00;100270.44;5101970;28;20439;-68
2022/11/14 06:12:50;;;;;;;52.97;26.80;;;;;;;2.01;100.00;100262.69;5096264;28;20491;-69
2022/11/14 06:15:17;;;;;;;57.07;26.80;;;;;;;2.18;100.00;100248.56;5081639;28;20460;-68
2022/11/14 06:17:44;;;;;;;53.77;27.10;;;;;;;2.21;100.00;100251.88;5083371;28;20957;-69
2022/11/14 06:20:12;;;;;;;58.30;28.07;;;;;;;2.12;100.00;100248.91;5082616;28;20474;-69
2022/11/14 06:22:40;;;;;;;56.97;28.47;;;;;;;2.02;100.00;100259.97;5077332;28;20457;-69
2022/11/14 06:25:07;;;;;;;55.50;26.90;;;;;;;2.05;100.00;100261.63;5065732;28;20429;-69
2022/11/14 06:27:34;;;;;;;54.90;26.80;;;;;;;2.00;100.00;100251.31;5103441;28;20487;-69
2022/11/14 06:30:01;;;;;;;60.07;29.10;;;;;;;1.96;100.00;100259.47;5102272;28;20509;-68
2022/11/14 06:32:27;;;;;;;56.60;27.90;;;;;;;2.00;100.00;100250.47;5102263;28;20479;-69
2022/11/14 06:34:54;;;;;;;59.63;27.47;;;;;;;1.98;100.00;100247.03;5102476;28;20424;-69
2022/11/14 06:37:21;;;;;;;51.10;27.07;;;;;;;1.94;100.00;100249.00;5061512;28;20477;-69
2022/11/14 06:39:49;;;;;;;56.37;26.50;;;;;;;1.98;100.00;100245.28;5062343;28;20823;-69
2022/11/14 06:42:16;;;;;;;57.17;29.00;;;;;;;2.02;100.00;100238.88;5062293;28;20904;-69
2022/11/14 06:44:42;;;;;;;55.63;27.47;;;;;;;2.12;100.00;100236.59;5062230;28;20894;-69
2022/11/14 06:47:09;;;;;;;67.40;28.70;;;;;;;2.18;100.00;100227.47;5097702;28;20564;-69
2022/11/14 06:49:36;;;;;;;62.07;29.60;;;;;;;2.17;100.00;100231.91;5102350;28;20427;-69
2022/11/14 06:52:03;;;;;;;68.23;29.57;;;;;;;2.14;100.00;100232.06;5101638;28;20467;-69
2022/11/14 06:54:29;;;;;;;74.50;30.10;;;;;;;2.10;100.00;100227.94;5102935;28;20454;-69
2022/11/14 06:56:57;;;;;;;64.10;29.37;;;;;;;2.16;100.00;100229.34;5084512;28;20476;-70
2022/11/14 06:59:24;;;;;;;58.57;29.17;;;;;;;2.20;100.00;100231.72;5081421;28;21082;-69
2022/11/14 07:01:51;;;;;;;71.03;28.70;;;;;;;2.25;100.00;100229.66;5081127;28;20484;-69
2022/11/14 07:04:18;;;;;;;53.57;29.40;;;;;;;2.25;100.00;100224.38;5082635;28;20436;-69
2022/11/14 07:06:44;;;;;;;62.93;29.70;;;;;;;2.30;100.00;100228.56;5081352;28;20545;-69
2022/11/14 07:09:11;;;;;;;61.30;29.07;;;;;;;2.33;100.00;100231.03;5082149;28;20421;-69
2022/11/14 07:11:38;;;;;;;64.20;28.57;;;;;;;2.34;100.00;100232.72;5081277;28;20877;-69
2022/11/14 07:14:06;;;;;;;66.33;27.67;;;;;;;2.35;100.00;100237.91;5081719;28;20432;-69
2022/11/14 07:16:35;;;;;;;74.00;30.30;;;;;;;2.44;100.00;100240.00;5080746;28;21005;-69
2022/11/14 07:19:03;;;;;;;75.40;31.43;;;;;;;2.48;100.00;100232.75;5081413;28;20930;-69
2022/11/14 07:21:31;;;;;;;61.67;29.20;;;;;;;2.51;100.00;100226.47;5080787;28;20464;-69
2022/11/14 07:23:58;;;;;;;72.57;35.20;;;;;;;2.20;100.00;100229.06;5082245;28;20421;-69
2022/11/14 07:26:25;;;;;;;65.70;31.37;;;;;;;2.53;100.00;100224.59;5092685;28;20486;-69
2022/11/14 07:28:52;;;;;;;55.43;28.27;;;;;;;2.54;100.00;100223.66;5101067;28;20427;-69
2022/11/14 07:31:20;;;;;;;62.23;30.37;;;;;;;2.62;100.00;100224.91;5100987;28;20718;-68
2022/11/14 07:33:48;;;;;;;89.83;37.17;;;;;;;2.63;100.00;100226.59;5102243;28;20428;-69
2022/11/14 07:36:16;;;;;;;82.80;34.90;;;;;;;2.77;100.00;100219.66;5099601;28;20475;-69
2022/11/14 07:38:42;;;;;;;69.93;32.23;;;;;;;2.82;100.00;100214.94;5102572;28;20447;-69
2022/11/14 07:41:12;;;;;;;65.60;33.50;;;;;;;3.03;100.00;100220.72;5101361;28;20479;-68
2022/11/14 07:43:39;;;;;;;62.17;29.37;;;;;;;3.64;100.00;100213.41;5101563;28;20424;-69
2022/11/14 07:46:07;;;;;;;68.17;31.47;;;;;;;4.25;100.00;100211.28;5100683;28;20505;-70
2022/11/14 07:48:36;;;;;;;64.33;32.67;;;;;;;5.44;100.00;100217.28;5101050;28;20458;-72
2022/11/14 07:51:04;;;;;;;67.70;33.67;;;;;;;5.66;95.17;100208.66;5101035;28;20497;-72
2022/11/14 07:53:31;;;;;;;66.83;35.07;;;;;;;6.48;89.83;100209.84;5082909;28;20437;-71
2022/11/14 07:56:02;;;;;;;61.37;34.50;;;;;;;7.58;86.84;100210.22;5087532;28;20529;-71
2022/11/14 07:58:29;;;;;;;62.17;33.97;;;;;;;7.48;80.69;100210.97;5101543;28;20873;-71
2022/11/14 08:00:56;;;;;;;67.60;33.27;;;;;;;8.34;78.91;100205.78;5101453;28;20528;-72
2022/11/14 08:03:23;;;;;;;49.93;29.73;;;;;;;8.48;75.50;100207.34;5101194;28;20450;-73
2022/11/14 08:05:51;;;;;;;40.80;27.17;;;;;;;9.13;71.87;100200.06;5095030;28;20480;-71
2022/11/14 08:08:18;;;;;;;40.73;27.33;;;;;;;8.67;73.24;100207.47;5081075;28;20518;-72
2022/11/14 08:10:45;;;;;;;41.10;23.07;;;;;;;9.37;68.40;100210.44;5092089;28;21141;-72
2022/11/14 08:13:12;;;;;;;32.93;22.57;;;;;;;9.36;68.16;100208.72;5080289;28;20436;-72
2022/11/14 08:15:39;;;;;;;27.63;19.63;;;;;;;9.42;67.65;100216.19;5083594;28;20486;-72
2022/11/14 08:18:06;;;;;;;26.30;19.33;;;;;;;9.84;65.71;100211.69;5080488;28;20479;-73
2022/11/14 08:20:33;;;;;;;24.17;17.40;;;;;;;9.49;65.42;100211.16;5080237;28;20467;-72
2022/11/14 08:23:03;;;;;;;22.90;16.70;;;;;;;9.92;65.16;100204.69;5079355;28;20448;-73
2022/11/14 08:25:30;;;;;;;21.53;16.13;;;;;;;9.92;64.27;100196.66;5080211;28;20898;-73
2022/11/14 08:27:57;;;;;;;23.33;17.40;;;;;;;10.76;62.11;100195.31;5080731;28;20488;-73
2022/11/14 08:30:24;;;;;;;21.97;16.70;;;;;;;10.76;60.90;100197.97;5080444;28;20491;-73
2022/11/14 08:32:51;;;;;;;24.57;16.20;;;;;;;10.71;61.51;100194.88;5084195;28;20555;-72
2022/11/14 08:35:18;;;;;;;23.43;17.37;;;;;;;11.61;58.67;100198.84;5083135;28;20433;-73
2022/11/14 08:37:45;;;;;;;20.70;16.77;;;;;;;11.16;59.51;100199.56;5084739;28;20462;-73
2022/11/14 08:40:14;;;;;;;21.27;16.27;;;;;;;10.96;59.14;100193.44;5084218;28;20929;-74
2022/11/14 08:42:41;;;;;;;22.57;17.37;;;;;;;11.18;58.82;100194.06;5095594;28;20463;-73
2022/11/14 08:45:08;;;;;;;20.70;16.40;;;;;;;10.74;60.78;100190.13;5104307;28;20455;-72
2022/11/14 08:47:35;;;;;;;23.63;17.47;;;;;;;11.31;60.26;100184.72;5103746;28;20551;-73
2022/11/14 08:50:02;;;;;;;24.20;17.30;;;;;;;11.21;59.55;100186.59;5104410;28;20431;-72
2022/11/14 08:52:29;;;;;;;20.73;15.40;;;;;;;10.99;61.20;100194.97;5094878;28;21166;-73
2022/11/14 08:54:55;;;;;;;20.63;15.97;;;;;;;11.86;57.88;100191.94;5084309;28;20451;-71
2022/11/14 08:57:24;;;;;;;23.47;17.87;;;;;;;12.19;57.48;100196.84;5082847;28;20468;-73
2022/11/14 08:59:51;;;;;;;24.50;16.33;;;;;;;11.97;57.30;100198.94;5084668;28;20460;-74
2022/11/14 09:02:18;;;;;;;21.60;15.73;;;;;;;12.19;57.51;100203.03;5090862;28;20490;-73
2022/11/14 09:04:44;;;;;;;19.87;15.40;;;;;;;12.16;56.48;100205.19;5103933;28;20479;-72
2022/11/14 09:07:11;;;;;;;19.20;16.40;;;;;;;12.49;55.64;100200.97;5103578;28;20484;-73
2022/11/14 09:09:38;;;;;;;21.83;16.57;;;;;;;12.81;55.74;100202.22;5090302;28;20432;-72
2022/11/14 09:12:05;;;;;;;20.03;15.70;;;;;;;12.37;56.03;100207.56;5087573;28;20480;-73
2022/11/14 09:14:34;;;;;;;20.33;14.40;;;;;;;12.22;56.04;100199.19;5104707;28;20507;-74
2022/11/14 09:17:01;;;;;;;19.50;14.37;;;;;;;12.44;55.95;100206.78;5102748;28;20494;-70
2022/11/14 09:19:28;;;;;;;21.00;15.50;;;;;;;11.88;56.45;100199.81;5103822;28;20431;-72
2022/11/14 09:21:54;;;;;;;18.50;14.40;;;;;;;11.57;58.28;100200.13;5099196;28;21054;-73
2022/11/14 09:24:21;;;;;;;19.80;15.77;;;;;;;12.52;55.16;100206.03;5084495;28;20559;-73
2022/11/14 09:26:49;;;;;;;19.10;14.17;;;;;;;12.12;57.02;100193.09;5082028;28;20502;-72
2022/11/14 09:29:17;;;;;;;19.03;14.97;;;;;;;14.26;52.30;100190.63;5084068;28;20447;-72
2022/11/14 09:31:46;;;;;;;21.10;14.27;;;;;;;13.86;51.48;100186.84;5084145;28;20503;-71
2022/11/14 09:34:12;;;;;;;18.53;14.33;;;;;;;13.74;51.63;100191.69;5090705;28;20452;-73
2022/11/14 09:36:39;;;;;;;21.90;16.27;;;;;;;14.83;49.61;100179.06;5062329;28;20499;-72
2022/11/14 09:39:06;;;;;;;19.50;14.67;;;;;;;14.57;49.08;100184.63;5063986;28;21167;-73
2022/11/14 09:41:45;;;;;;;18.17;15.03;;;;;;;14.45;48.29;100172.50;5062947;28;20579;-72
2022/11/14 09:44:46;;;;;;;17.43;14.67;;;;;;;13.05;51.71;100176.56;5104276;28;20434;-72
2022/11/14 09:47:16;;;;;;;19.87;14.80;;;;;;;13.32;52.28;100173.72;5082834;28;20583;-73
2022/11/14 09:49:45;;;;;;;18.03;14.57;;;;;;;14.52;51.12;100173.50;5083408;28;20462;-73
2022/11/14 09:52:20;;;;;;;20.50;15.90;;;;;;;14.44;49.28;100165.44;5102007;28;20548;-73
2022/11/14 09:54:51;;;;;;;17.67;14.30;;;;;;;14.51;48.74;100169.13;5103765;28;20430;-73
2022/11/14 09:57:19;;;;;;;18.23;14.40;;;;;;;15.78;45.95;100164.00;5096890;28;21537;-73
2022/11/14 09:59:46;;;;;;;18.90;14.67;;;;;;;15.13;47.23;100165.88;5063975;28;20430;-73
2022/11/14 10:02:40;;;;;;;18.83;14.07;;;;;;;15.81;45.91;100153.72;5062109;28;20510;-73
2022/11/14 10:05:19;;;;;;;16.20;13.13;;;;;;;15.21;47.33;100151.56;5062251;28;21012;-73
2022/11/14 10:08:04;;;;;;;18.50;14.50;;;;;;;15.14;46.94;100143.34;5075251;28;20490;-71
2022/11/14 10:10:42;;;;;;;15.90;13.67;;;;;;;14.52;48.51;100132.31;5074133;28;20512;-68
2022/11/14 10:13:18;;;;;;;18.73;15.23;;;;;;;14.38;49.77;100131.16;5082501;28;20910;-73
2022/11/14 10:15:48;;;;;;;18.43;14.00;;;;;;;14.49;49.78;100128.97;5082280;28;20474;-72
2022/11/14 10:18:35;;;;;;;16.90;13.40;;;;;;;14.68;49.03;100133.16;5081894;28;20483;-73
2022/11/14 10:21:09;;;;;;;17.30;14.67;;;;;;;14.90;48.01;100125.41;5082652;28;20989;-73
2022/11/14 10:23:42;;;;;;;17.93;13.77;;;;;;;14.60;48.88;100126.94;5083013;28;20438;-72
2022/11/14 10:26:15;;;;;;;18.87;13.50;;;;;;;14.75;48.87;100135.19;5081406;28;20470;-72
2022/11/14 10:29:02;;;;;;;17.83;14.60;;;;;;;14.22;49.82;100118.56;5103231;28;20525;-73
2022/11/14 10:31:36;;;;;;;23.90;14.60;;;;;;;15.15;47.83;100125.31;5101568;28;21019;-72
2022/11/14 10:34:07;;;;;;;16.63;13.97;;;;;;;14.78;49.00;100122.22;5102835;28;20429;-74
2022/11/14 10:36:46;;;;;;;17.13;14.00;;;;;;;15.00;49.04;100123.34;5102083;28;20482;-73
2022/11/14 10:39:17;;;;;;;19.13;14.80;;;;;;;14.66;49.18;100124.44;5102542;28;20458;-72
2022/11/14 10:41:45;;;;;;;18.70;12.90;;;;;;;14.47;49.69;100117.50;5101419;28;20499;-72
2022/11/14 10:44:13;;;;;;;16.10;13.83;;;;;;;15.77;47.74;100116.50;5103313;28;20435;-74
2022/11/14 10:46:43;;;;;;;17.67;14.27;;;;;;;15.73;47.06;100105.19;5101278;28;20550;-73
2022/11/14 10:49:16;;;;;;;15.47;11.93;;;;;;;15.42;47.56;100116.81;5101513;28;20490;-73
2022/11/14 10:51:45;;;;;;;16.43;13.00;;;;;;;15.69;47.63;100119.19;5102354;28;20477;-73
2022/11/14 10:54:16;;;;;;;15.03;12.63;;;;;;;15.59;46.86;100114.88;5085132;28;20441;-73
2022/11/14 10:56:47;;;;;;;12.97;11.43;;;;;;;16.07;46.02;100116.63;5080200;28;20502;-72
2022/11/14 10:59:13;;;;;;;17.70;13.30;;;;;;;16.02;46.27;100098.28;5082808;28;20454;-73
2022/11/14 11:01:42;;;;;;;16.50;12.97;;;;;;;16.02;46.65;100100.97;5081220;28;20489;-72
2022/11/14 11:04:26;;;;;;;13.93;12.03;;;;;;;15.89;46.35;100090.78;5081899;28;20434;-73
2022/11/14 11:06:56;;;;;;;15.90;12.17;;;;;;;16.14;45.62;100093.31;5077103;28;21011;-73
2022/11/14 11:12:14;;;;;;;15.50;12.77;;;;;;;16.21;46.59;100082.63;5081080;28;20482;-72
2022/11/14 11:14:42;;;;;;;12.10;10.80;;;;;;;16.14;46.43;100094.16;5082355;28;20436;-73
2022/11/14 11:17:20;;;;;;;13.70;11.83;;;;;;;15.17;47.04;100088.28;5079869;28;20558;-73